Overview Statistics Trail Chart Weather Telemetry Raw packets
 

This is the latest recevied weather packets stored in our database for station/object HS1AXC-1. If no packets are shown the sender has not sent any weather packets the latest 10 day(s).

<< 47 48 49 50 51 52 53 >>
Time Temp. Humidity Pressure Rain* Wind** Luminosity Snow
1787918396 32.78° C 87% 1006 hPa - - 0 W/m² -
1787917774 32.78° C 87% 1006 hPa - - 0 W/m² -
1787917152 33.33° C 85% 1006 hPa - - 0 W/m² -
1787916530 33.33° C 83% 1006 hPa - - 0 W/m² -
1787915909 32.78° C 84% 1006 hPa - - 0 W/m² -
1787915285 33.89° C 80% 1006 hPa - - 0 W/m² -
1787914663 33.33° C 82% 1006 hPa - - 0 W/m² -
1787914073 33.33° C 79% 1006 hPa - - 0 W/m² -
1787913451 33.89° C 77% 1006 hPa - - 0 W/m² -
1787912829 33.89° C 76% 1006 hPa - - 0 W/m² -
1787912038 33.89° C 75% 1005 hPa - - 0 W/m² -
1787911415 33.89° C 74% 1005 hPa - - 0 W/m² -
1787910794 34.44° C 71% 1005 hPa - - 0 W/m² -
1787910171 34.44° C 69% 1005 hPa - - 0 W/m² -
1787909549 33.89° C 71% 1005 hPa - - 0 W/m² -
1787908728 34.44° C 68% 1005 hPa - - 0 W/m² -
1787908106 35° C 67% 1005 hPa - - 1 W/m² -
1787907484 35.56° C 66% 1005 hPa - - 1 W/m² -
1787906862 35° C 66% 1005 hPa - - 1 W/m² -
1787906240 35° C 67% 1005 hPa - - 1 W/m² -
1787905618 35.56° C 64% 1005 hPa - - 1 W/m² -
1787904996 35° C 66% 1005 hPa - - 1 W/m² -
1787904374 35° C 64% 1005 hPa - - 1 W/m² -
1787903752 35.56° C 63% 1005 hPa - - 1 W/m² -
1787903130 36.11° C 61% 1005 hPa - - 1 W/m² -

* Rain since midnight (hover to see other rain measurements)
** Current wind speed in m/s (hover to see current wind gust speed)